This is the latest recevied weather packets stored in our database for station/object OH2HCY-3. If no packets are shown the sender has not sent any weather packets the latest 1 day(s).
| Time | Temp. | Humidity | Pressure | Rain* | Wind** | Luminosity | Snow |
|---|---|---|---|---|---|---|---|
| 1778108536 | 0.56° C | 62% | 1014.9 hPa | - | - | - | - |
| 1778101152 | 2.22° C | 66% | 1014.5 hPa | - | - | - | - |
| 1778100066 | 2.22° C | 68% | 1014.4 hPa | - | - | - | - |
| 1778096846 | 3.33° C | 73% | 1014.4 hPa | - | - | - | - |
| 1778093306 | 5.56° C | 65% | 1014.2 hPa | - | - | - | - |
| 1778092306 | 6.11° C | 61% | 1014.2 hPa | - | - | - | - |
| 1778091171 | 7.22° C | 57% | 1014.2 hPa | - | - | - | - |
| 1778084991 | 10° C | 39% | 1013.9 hPa | - | - | - | - |
| 1778082677 | 10° C | 38% | 1013.9 hPa | - | - | - | - |
| 1778081706 | 10° C | 39% | 1014 hPa | - | - | - | - |
| 1778078411 | 8.89° C | 45% | 1014.2 hPa | - | - | - | - |
| 1778077386 | 9.44° C | 44% | 1014.4 hPa | - | - | - | - |
| 1778076362 | 9.44° C | 44% | 1014.3 hPa | - | - | - | - |
| 1778073285 | 8.89° C | 46% | 1014.3 hPa | - | - | - | - |
| 1778071128 | 7.78° C | - | 1014.1 hPa | - | - | - | - |
| 1778071127 | 8.33° C | 46% | 1014.1 hPa | - | - | - | - |
| 1778066949 | 8.89° C | 48% | 1014.5 hPa | - | - | - | - |
| 1778065868 | 8.89° C | 49% | 1014.4 hPa | - | - | - | - |
| 1778065866 | 8.89° C | 49% | 1014.4 hPa | - | - | - | - |
| 1778064766 | 7.78° C | 52% | 1014.5 hPa | - | - | - | - |
| 1778062736 | 8.89° C | 52% | 1014.3 hPa | - | - | - | - |
| 1778061631 | 8.89° C | 50% | 1014.1 hPa | - | - | - | - |
| 1778060671 | 9.44° C | 46% | 1013.9 hPa | - | - | - | - |
| 1778059516 | 9.44° C | 45% | 1013.7 hPa | - | - | - | - |
| 1778058466 | 10° C | 38% | 1013.5 hPa | - | - | - | - |
* Rain since midnight (hover to see other rain measurements)
** Current wind speed in m/s (hover to see current wind gust speed)